sensor_id;sensor_type;location;lat;lon;timestamp;pressure;altitude;pressure_sealevel;temperature;humidity
5062;BME280;2351;50.812;12.872;2023-07-20T00:02:29;97551.31;;;15.27;100.00
5062;BME280;2351;50.812;12.872;2023-07-20T00:05:01;97552.81;;;15.29;100.00
5062;BME280;2351;50.812;12.872;2023-07-20T00:07:33;97550.16;;;15.29;100.00
5062;BME280;2351;50.812;12.872;2023-07-20T00:10:06;97543.97;;;15.29;100.00
5062;BME280;2351;50.812;12.872;2023-07-20T00:12:37;97548.31;;;15.30;100.00
5062;BME280;2351;50.812;12.872;2023-07-20T00:15:09;97538.31;;;15.32;100.00
5062;BME280;2351;50.812;12.872;2023-07-20T00:17:42;97541.81;;;15.32;100.00
5062;BME280;2351;50.812;12.872;2023-07-20T00:20:15;97536.63;;;15.31;100.00
5062;BME280;2351;50.812;12.872;2023-07-20T00:22:46;97544.47;;;15.32;100.00
5062;BME280;2351;50.812;12.872;2023-07-20T00:25:18;97532.81;;;15.33;100.00
5062;BME280;2351;50.812;12.872;2023-07-20T00:27:50;97531.16;;;15.32;100.00
5062;BME280;2351;50.812;12.872;2023-07-20T00:30:22;97537.50;;;15.31;100.00
5062;BME280;2351;50.812;12.872;2023-07-20T00:32:55;97537.50;;;15.31;100.00
5062;BME280;2351;50.812;12.872;2023-07-20T00:35:26;97547.31;;;15.31;100.00
5062;BME280;2351;50.812;12.872;2023-07-20T00:37:58;97541.16;;;15.30;100.00
5062;BME280;2351;50.812;12.872;2023-07-20T00:40:35;97540.16;;;15.31;100.00
5062;BME280;2351;50.812;12.872;2023-07-20T00:43:08;97542.97;;;15.30;100.00
5062;BME280;2351;50.812;12.872;2023-07-20T00:45:40;97546.81;;;15.27;100.00
5062;BME280;2351;50.812;12.872;2023-07-20T00:48:14;97547.97;;;15.25;100.00
5062;BME280;2351;50.812;12.872;2023-07-20T00:50:46;97539.34;;;15.23;100.00
5062;BME280;2351;50.812;12.872;2023-07-20T00:53:18;97542.34;;;15.19;100.00
5062;BME280;2351;50.812;12.872;2023-07-20T00:55:50;97536.53;;;15.16;100.00
5062;BME280;2351;50.812;12.872;2023-07-20T00:58:23;97537.53;;;15.15;100.00
5062;BME280;2351;50.812;12.872;2023-07-20T01:00:55;97541.19;;;15.14;100.00
5062;BME280;2351;50.812;12.872;2023-07-20T01:03:28;97529.88;;;15.12;100.00
5062;BME280;2351;50.812;12.872;2023-07-20T01:06:08;97535.38;;;15.10;100.00
5062;BME280;2351;50.812;12.872;2023-07-20T01:08:47;97537.56;;;15.06;100.00
5062;BME280;2351;50.812;12.872;2023-07-20T01:11:30;97542.03;;;15.06;100.00
5062;BME280;2351;50.812;12.872;2023-07-20T01:14:03;97539.91;;;15.01;100.00
5062;BME280;2351;50.812;12.872;2023-07-20T01:16:36;97531.25;;;14.99;100.00
5062;BME280;2351;50.812;12.872;2023-07-20T01:19:09;97527.09;;;14.97;100.00
5062;BME280;2351;50.812;12.872;2023-07-20T01:21:45;97527.09;;;14.97;100.00
5062;BME280;2351;50.812;12.872;2023-07-20T01:24:34;97520.91;;;14.96;100.00
5062;BME280;2351;50.812;12.872;2023-07-20T01:27:38;97520.91;;;14.96;100.00
5062;BME280;2351;50.812;12.872;2023-07-20T01:30:34;97526.44;;;14.95;100.00
5062;BME280;2351;50.812;12.872;2023-07-20T01:33:14;97523.78;;;14.95;100.00
5062;BME280;2351;50.812;12.872;2023-07-20T01:35:52;97519.44;;;14.94;100.00
5062;BME280;2351;50.812;12.872;2023-07-20T01:38:25;97525.59;;;14.94;100.00
5062;BME280;2351;50.812;12.872;2023-07-20T01:40:57;97509.59;;;14.94;100.00
5062;BME280;2351;50.812;12.872;2023-07-20T01:43:29;97510.59;;;14.93;100.00
5062;BME280;2351;50.812;12.872;2023-07-20T01:46:01;97522.25;;;14.92;100.00
5062;BME280;2351;50.812;12.872;2023-07-20T01:48:34;97519.97;;;14.89;100.00
5062;BME280;2351;50.812;12.872;2023-07-20T01:51:06;97520.44;;;14.84;100.00
5062;BME280;2351;50.812;12.872;2023-07-20T01:53:37;97527.78;;;14.82;100.00
5062;BME280;2351;50.812;12.872;2023-07-20T01:56:09;97521.16;;;14.78;100.00
5062;BME280;2351;50.812;12.872;2023-07-20T01:58:42;97532.81;;;14.77;100.00
5062;BME280;2351;50.812;12.872;2023-07-20T02:01:14;97522.31;;;14.75;100.00
5062;BME280;2351;50.812;12.872;2023-07-20T02:03:47;97533.94;;;14.74;100.00
5062;BME280;2351;50.812;12.872;2023-07-20T02:06:19;97523.47;;;14.73;100.00
5062;BME280;2351;50.812;12.872;2023-07-20T02:08:50;97523.63;;;14.71;100.00
5062;BME280;2351;50.812;12.872;2023-07-20T02:11:23;97519.31;;;14.70;100.00
5062;BME280;2351;50.812;12.872;2023-07-20T02:13:55;97525.63;;;14.69;100.00
5062;BME280;2351;50.812;12.872;2023-07-20T02:16:27;97538.13;;;14.69;100.00
5062;BME280;2351;50.812;12.872;2023-07-20T02:19:00;97533.09;;;14.66;100.00
5062;BME280;2351;50.812;12.872;2023-07-20T02:21:31;97538.94;;;14.61;100.00
5062;BME280;2351;50.812;12.872;2023-07-20T02:24:04;97541.94;;;14.58;100.00
5062;BME280;2351;50.812;12.872;2023-07-20T02:26:36;97542.13;;;14.56;100.00
5062;BME280;2351;50.812;12.872;2023-07-20T02:29:07;97537.13;;;14.53;100.00
5062;BME280;2351;50.812;12.872;2023-07-20T02:31:41;97536.44;;;14.51;100.00
5062;BME280;2351;50.812;12.872;2023-07-20T02:34:14;97522.47;;;14.49;100.00
5062;BME280;2351;50.812;12.872;2023-07-20T02:36:46;97532.47;;;14.47;100.00
5062;BME280;2351;50.812;12.872;2023-07-20T02:39:18;97536.28;;;14.44;100.00
5062;BME280;2351;50.812;12.872;2023-07-20T02:41:50;97533.97;;;14.41;100.00
5062;BME280;2351;50.812;12.872;2023-07-20T02:44:22;97526.44;;;14.37;100.00
5062;BME280;2351;50.812;12.872;2023-07-20T02:46:53;97534.78;;;14.34;100.00
5062;BME280;2351;50.812;12.872;2023-07-20T02:49:26;97539.28;;;14.33;100.00
5062;BME280;2351;50.812;12.872;2023-07-20T02:51:58;97545.09;;;14.28;100.00
5062;BME280;2351;50.812;12.872;2023-07-20T02:54:30;97549.09;;;14.24;100.00
5062;BME280;2351;50.812;12.872;2023-07-20T02:57:02;97545.94;;;14.21;100.00
5062;BME280;2351;50.812;12.872;2023-07-20T02:59:34;97548.91;;;14.18;100.00
5062;BME280;2351;50.812;12.872;2023-07-20T03:02:05;97552.72;;;14.15;100.00
5062;BME280;2351;50.812;12.872;2023-07-20T03:04:41;97557.56;;;14.11;100.00
5062;BME280;2351;50.812;12.872;2023-07-20T03:07:13;97558.72;;;14.09;100.00
5062;BME280;2351;50.812;12.872;2023-07-20T03:09:44;97553.88;;;14.04;100.00
5062;BME280;2351;50.812;12.872;2023-07-20T03:12:16;97565.00;;;13.99;100.00
5062;BME280;2351;50.812;12.872;2023-07-20T03:14:48;97569.84;;;13.96;100.00
5062;BME280;2351;50.812;12.872;2023-07-20T03:17:20;97564.84;;;13.93;100.00
5062;BME280;2351;50.812;12.872;2023-07-20T03:19:53;97558.84;;;13.91;100.00
5062;BME280;2351;50.812;12.872;2023-07-20T03:22:25;97561.50;;;13.91;100.00
5062;BME280;2351;50.812;12.872;2023-07-20T03:24:57;97569.31;;;13.92;100.00
5062;BME280;2351;50.812;12.872;2023-07-20T03:27:28;97566.81;;;13.91;100.00
5062;BME280;2351;50.812;12.872;2023-07-20T03:30:00;97572.31;;;13.89;100.00
5062;BME280;2351;50.812;12.872;2023-07-20T03:32:32;97569.81;;;13.88;100.00
5062;BME280;2351;50.812;12.872;2023-07-20T03:35:06;97572.66;;;13.86;100.00
5062;BME280;2351;50.812;12.872;2023-07-20T03:37:39;97562.16;;;13.84;100.00
5062;BME280;2351;50.812;12.872;2023-07-20T03:40:11;97576.31;;;13.85;100.00
5062;BME280;2351;50.812;12.872;2023-07-20T03:42:43;97571.97;;;13.84;100.00
5062;BME280;2351;50.812;12.872;2023-07-20T03:45:15;97572.97;;;13.83;100.00
5062;BME280;2351;50.812;12.872;2023-07-20T03:47:46;97575.63;;;13.83;100.00
5062;BME280;2351;50.812;12.872;2023-07-20T03:50:20;97575.44;;;13.84;100.00
5062;BME280;2351;50.812;12.872;2023-07-20T03:52:52;97579.78;;;13.85;100.00
5062;BME280;2351;50.812;12.872;2023-07-20T03:55:24;97578.78;;;13.86;100.00
5062;BME280;2351;50.812;12.872;2023-07-20T03:57:55;97577.13;;;13.85;100.00
5062;BME280;2351;50.812;12.872;2023-07-20T04:00:27;97581.44;;;13.86;100.00
5062;BME280;2351;50.812;12.872;2023-07-20T04:02:59;97573.47;;;13.86;100.00
5062;BME280;2351;50.812;12.872;2023-07-20T04:05:32;97576.47;;;13.92;100.00
5062;BME280;2351;50.812;12.872;2023-07-20T04:08:04;97578.13;;;13.93;100.00
5062;BME280;2351;50.812;12.872;2023-07-20T04:10:36;97573.50;;;13.95;100.00
5062;BME280;2351;50.812;12.872;2023-07-20T04:13:08;97582.97;;;13.97;100.00
5062;BME280;2351;50.812;12.872;2023-07-20T04:15:39;97581.16;;;13.98;100.00
5062;BME280;2351;50.812;12.872;2023-07-20T04:18:11;97571.00;;;14.01;100.00
5062;BME280;2351;50.812;12.872;2023-07-20T04:20:45;97578.50;;;14.06;100.00
5062;BME280;2351;50.812;12.872;2023-07-20T04:23:17;97568.53;;;14.08;100.00
5062;BME280;2351;50.812;12.872;2023-07-20T04:25:48;97573.53;;;14.11;100.00
5062;BME280;2351;50.812;12.872;2023-07-20T04:28:20;97576.84;;;14.13;100.00
5062;BME280;2351;50.812;12.872;2023-07-20T04:30:52;97572.34;;;14.14;100.00
5062;BME280;2351;50.812;12.872;2023-07-20T04:33:24;97579.34;;;14.15;100.00
5062;BME280;2351;50.812;12.872;2023-07-20T04:36:00;97581.19;;;14.14;100.00
5062;BME280;2351;50.812;12.872;2023-07-20T04:38:32;97581.19;;;14.14;100.00
5062;BME280;2351;50.812;12.872;2023-07-20T04:41:04;97589.16;;;14.14;100.00
5062;BME280;2351;50.812;12.872;2023-07-20T04:43:41;97593.31;;;14.17;100.00
5062;BME280;2351;50.812;12.872;2023-07-20T04:46:13;97586.31;;;14.16;100.00
5062;BME280;2351;50.812;12.872;2023-07-20T04:48:50;97588.66;;;14.19;100.00
5062;BME280;2351;50.812;12.872;2023-07-20T04:51:26;97584.50;;;14.25;100.00
5062;BME280;2351;50.812;12.872;2023-07-20T04:54:01;97590.84;;;14.32;100.00
5062;BME280;2351;50.812;12.872;2023-07-20T04:56:42;97582.84;;;14.32;100.00
5062;BME280;2351;50.812;12.872;2023-07-20T04:59:14;97593.50;;;14.32;100.00
5062;BME280;2351;50.812;12.872;2023-07-20T05:01:45;97590.84;;;14.32;100.00
5062;BME280;2351;50.812;12.872;2023-07-20T05:04:18;97590.69;;;14.34;100.00
5062;BME280;2351;50.812;12.872;2023-07-20T05:06:51;97585.19;;;14.35;100.00
5062;BME280;2351;50.812;12.872;2023-07-20T05:09:23;97594.84;;;14.36;100.00
5062;BME280;2351;50.812;12.872;2023-07-20T05:11:55;97598.50;;;14.35;100.00
5062;BME280;2351;50.812;12.872;2023-07-20T05:14:26;97599.81;;;14.31;100.00
5062;BME280;2351;50.812;12.872;2023-07-20T05:16:58;97596.50;;;14.29;100.00
5062;BME280;2351;50.812;12.872;2023-07-20T05:19:30;97613.63;;;14.26;100.00
5062;BME280;2351;50.812;12.872;2023-07-20T05:22:03;97607.47;;;14.26;100.00
5062;BME280;2351;50.812;12.872;2023-07-20T05:24:35;97602.31;;;14.24;100.00
5062;BME280;2351;50.812;12.872;2023-07-20T05:27:07;97618.28;;;14.24;100.00
5062;BME280;2351;50.812;12.872;2023-07-20T05:29:43;97612.78;;;14.26;100.00
5062;BME280;2351;50.812;12.872;2023-07-20T05:32:15;97613.47;;;14.28;100.00
5062;BME280;2351;50.812;12.872;2023-07-20T05:34:47;97613.97;;;14.31;100.00
5062;BME280;2351;50.812;12.872;2023-07-20T05:37:20;97611.81;;;14.35;100.00
5062;BME280;2351;50.812;12.872;2023-07-20T05:39:52;97623.63;;;14.33;100.00
5062;BME280;2351;50.812;12.872;2023-07-20T05:42:23;97625.09;;;14.27;100.00
5062;BME280;2351;50.812;12.872;2023-07-20T05:44:55;97618.47;;;14.23;100.00
5062;BME280;2351;50.812;12.872;2023-07-20T05:47:27;97610.31;;;14.24;100.00
5062;BME280;2351;50.812;12.872;2023-07-20T05:49:59;97619.28;;;14.23;100.00
5062;BME280;2351;50.812;12.872;2023-07-20T05:52:32;97619.78;;;14.19;100.00
5062;BME280;2351;50.812;12.872;2023-07-20T05:55:05;97621.44;;;14.20;100.00
5062;BME280;2351;50.812;12.872;2023-07-20T05:57:36;97616.13;;;14.20;100.00
5062;BME280;2351;50.812;12.872;2023-07-20T06:00:12;97619.91;;;14.00;100.00
5062;BME280;2351;50.812;12.872;2023-07-20T06:02:44;97628.06;;;13.99;100.00
5062;BME280;2351;50.812;12.872;2023-07-20T06:05:18;97627.69;;;14.02;100.00
5062;BME280;2351;50.812;12.872;2023-07-20T06:07:51;97632.69;;;14.05;100.00
5062;BME280;2351;50.812;12.872;2023-07-20T06:10:25;97623.72;;;14.06;100.00
5062;BME280;2351;50.812;12.872;2023-07-20T06:12:56;97623.59;;;14.08;100.00
5062;BME280;2351;50.812;12.872;2023-07-20T06:15:30;97624.06;;;14.11;100.00
5062;BME280;2351;50.812;12.872;2023-07-20T06:18:02;97626.56;;;14.13;100.00
5062;BME280;2351;50.812;12.872;2023-07-20T06:20:34;97626.41;;;14.14;100.00
5062;BME280;2351;50.812;12.872;2023-07-20T06:23:07;97625.44;;;14.15;100.00
5062;BME280;2351;50.812;12.872;2023-07-20T06:25:39;97627.09;;;14.16;100.00
5062;BME280;2351;50.812;12.872;2023-07-20T06:28:11;97635.22;;;14.15;100.00
5062;BME280;2351;50.812;12.872;2023-07-20T06:30:43;97633.72;;;14.12;100.00
5062;BME280;2351;50.812;12.872;2023-07-20T06:33:14;97629.91;;;14.07;100.00
5062;BME280;2351;50.812;12.872;2023-07-20T06:35:46;97633.38;;;14.07;100.00
5062;BME280;2351;50.812;12.872;2023-07-20T06:38:20;97632.91;;;14.12;100.00
5062;BME280;2351;50.812;12.872;2023-07-20T06:40:53;97621.72;;;14.08;100.00
5062;BME280;2351;50.812;12.872;2023-07-20T06:43:25;97623.41;;;14.09;100.00
5062;BME280;2351;50.812;12.872;2023-07-20T06:45:56;97624.75;;;14.13;100.00
5062;BME280;2351;50.812;12.872;2023-07-20T06:48:28;97628.59;;;14.19;100.00
5062;BME280;2351;50.812;12.872;2023-07-20T06:51:00;97631.41;;;14.26;100.00
5062;BME280;2351;50.812;12.872;2023-07-20T06:53:34;97635.09;;;14.33;100.00
5062;BME280;2351;50.812;12.872;2023-07-20T06:56:06;97632.59;;;14.40;100.00
5062;BME280;2351;50.812;12.872;2023-07-20T06:58:37;97637.47;;;14.44;100.00
5062;BME280;2351;50.812;12.872;2023-07-20T07:01:09;97642.78;;;14.44;100.00
5062;BME280;2351;50.812;12.872;2023-07-20T07:03:41;97642.78;;;14.44;100.00
5062;BME280;2351;50.812;12.872;2023-07-20T07:06:14;97638.94;;;14.47;100.00
5062;BME280;2351;50.812;12.872;2023-07-20T07:08:47;97644.94;;;14.49;100.00
5062;BME280;2351;50.812;12.872;2023-07-20T07:11:20;97644.63;;;14.52;100.00
5062;BME280;2351;50.812;12.872;2023-07-20T07:13:51;97636.47;;;14.54;100.00
5062;BME280;2351;50.812;12.872;2023-07-20T07:16:23;97644.78;;;14.59;100.00
5062;BME280;2351;50.812;12.872;2023-07-20T07:18:55;97639.81;;;14.64;100.00
5062;BME280;2351;50.812;12.872;2023-07-20T07:21:27;97636.50;;;14.70;100.00
5062;BME280;2351;50.812;12.872;2023-07-20T07:24:00;97642.00;;;14.77;100.00
5062;BME280;2351;50.812;12.872;2023-07-20T07:26:31;97640.50;;;14.83;100.00
5062;BME280;2351;50.812;12.872;2023-07-20T07:29:03;97648.84;;;14.88;100.00
5062;BME280;2351;50.812;12.872;2023-07-20T07:31:35;97636.50;;;14.87;100.00
5062;BME280;2351;50.812;12.872;2023-07-20T07:34:07;97640.66;;;14.89;100.00
5062;BME280;2351;50.812;12.872;2023-07-20T07:36:39;97637.66;;;14.93;100.00
5062;BME280;2351;50.812;12.872;2023-07-20T07:39:12;97642.16;;;15.00;100.00
5062;BME280;2351;50.812;12.872;2023-07-20T07:41:44;97641.16;;;15.10;100.00
5062;BME280;2351;50.812;12.872;2023-07-20T07:44:15;97636.81;;;15.17;100.00
5062;BME280;2351;50.812;12.872;2023-07-20T07:46:47;97636.94;;;15.32;100.00
5062;BME280;2351;50.812;12.872;2023-07-20T07:49:19;97629.41;;;15.52;100.00
5062;BME280;2351;50.812;12.872;2023-07-20T07:51:50;97626.69;;;15.60;100.00
5062;BME280;2351;50.812;12.872;2023-07-20T07:54:24;97630.53;;;15.66;100.00
5062;BME280;2351;50.812;12.872;2023-07-20T07:56:56;97640.50;;;15.72;100.00
5062;BME280;2351;50.812;12.872;2023-07-20T07:59:27;97637.16;;;15.70;100.00
5062;BME280;2351;50.812;12.872;2023-07-20T08:02:01;97632.13;;;15.84;100.00
5062;BME280;2351;50.812;12.872;2023-07-20T08:04:33;97640.25;;;15.99;100.00
5062;BME280;2351;50.812;12.872;2023-07-20T08:07:05;97634.84;;;16.15;100.00
5062;BME280;2351;50.812;12.872;2023-07-20T08:09:38;97630.72;;;16.36;100.00
5062;BME280;2351;50.812;12.872;2023-07-20T08:12:10;97631.00;;;16.41;100.00
5062;BME280;2351;50.812;12.872;2023-07-20T08:14:41;97639.94;;;16.25;100.00
5062;BME280;2351;50.812;12.872;2023-07-20T08:17:13;97631.06;;;16.33;100.00
5062;BME280;2351;50.812;12.872;2023-07-20T08:19:46;97632.38;;;16.37;100.00
5062;BME280;2351;50.812;12.872;2023-07-20T08:22:18;97630.78;;;16.51;100.00
5062;BME280;2351;50.812;12.872;2023-07-20T08:24:51;97630.34;;;16.62;100.00
5062;BME280;2351;50.812;12.872;2023-07-20T08:27:22;97629.81;;;16.67;100.00
5062;BME280;2351;50.812;12.872;2023-07-20T08:29:54;97620.72;;;16.76;100.00
5062;BME280;2351;50.812;12.872;2023-07-20T08:32:26;97630.09;;;16.72;100.00
5062;BME280;2351;50.812;12.872;2023-07-20T08:34:58;97618.16;;;16.83;100.00
5062;BME280;2351;50.812;12.872;2023-07-20T08:37:29;97630.63;;;16.91;100.00
5062;BME280;2351;50.812;12.872;2023-07-20T08:40:03;97629.94;;;16.97;100.00
5062;BME280;2351;50.812;12.872;2023-07-20T08:42:38;97624.88;;;17.02;100.00
5062;BME280;2351;50.812;12.872;2023-07-20T08:45:12;97624.34;;;17.22;100.00
5062;BME280;2351;50.812;12.872;2023-07-20T08:47:45;97624.81;;;17.25;100.00
5062;BME280;2351;50.812;12.872;2023-07-20T08:50:20;97625.66;;;17.26;100.00
5062;BME280;2351;50.812;12.872;2023-07-20T08:52:53;97626.00;;;17.23;100.00
5062;BME280;2351;50.812;12.872;2023-07-20T08:55:26;97622.34;;;17.24;100.00
5062;BME280;2351;50.812;12.872;2023-07-20T08:57:59;97636.44;;;17.33;100.00
5062;BME280;2351;50.812;12.872;2023-07-20T09:00:32;97630.91;;;17.64;100.00
5062;BME280;2351;50.812;12.872;2023-07-20T09:03:04;97622.44;;;17.75;100.00
5062;BME280;2351;50.812;12.872;2023-07-20T09:05:37;97624.28;;;17.60;100.00
5062;BME280;2351;50.812;12.872;2023-07-20T09:08:09;97621.22;;;17.63;100.00
5062;BME280;2351;50.812;12.872;2023-07-20T09:10:42;97617.25;;;17.59;100.00
5062;BME280;2351;50.812;12.872;2023-07-20T09:13:14;97619.78;;;17.60;97.95
5062;BME280;2351;50.812;12.872;2023-07-20T09:15:47;97612.28;;;17.71;94.73
5062;BME280;2351;50.812;12.872;2023-07-20T09:18:26;97624.91;;;17.92;93.82
5062;BME280;2351;50.812;12.872;2023-07-20T09:20:59;97615.16;;;18.21;96.04
5062;BME280;2351;50.812;12.872;2023-07-20T09:23:33;97616.78;;;18.37;95.65
5062;BME280;2351;50.812;12.872;2023-07-20T09:26:11;97622.19;;;18.44;94.10
5062;BME280;2351;50.812;12.872;2023-07-20T09:28:43;97621.59;;;18.42;91.83
5062;BME280;2351;50.812;12.872;2023-07-20T09:31:15;97620.06;;;18.17;88.40
5062;BME280;2351;50.812;12.872;2023-07-20T09:33:51;97628.09;;;18.17;90.71
5062;BME280;2351;50.812;12.872;2023-07-20T09:36:26;97619.25;;;18.17;90.71
5062;BME280;2351;50.812;12.872;2023-07-20T09:38:58;97620.28;;;18.16;90.33
5062;BME280;2351;50.812;12.872;2023-07-20T09:41:39;97622.09;;;18.15;89.93
5062;BME280;2351;50.812;12.872;2023-07-20T09:44:14;97614.84;;;18.09;88.80
5062;BME280;2351;50.812;12.872;2023-07-20T09:46:46;97625.81;;;18.14;88.97
5062;BME280;2351;50.812;12.872;2023-07-20T09:49:18;97621.09;;;18.16;87.59
5062;BME280;2351;50.812;12.872;2023-07-20T09:51:49;97626.75;;;18.06;86.17
5062;BME280;2351;50.812;12.872;2023-07-20T09:54:21;97627.84;;;18.12;87.60
5062;BME280;2351;50.812;12.872;2023-07-20T09:56:55;97630.78;;;18.17;87.03
5062;BME280;2351;50.812;12.872;2023-07-20T09:59:28;97630.41;;;18.20;87.09
5062;BME280;2351;50.812;12.872;2023-07-20T10:02:01;97635.56;;;18.22;87.25
5062;BME280;2351;50.812;12.872;2023-07-20T10:04:37;97627.34;;;18.24;87.12
5062;BME280;2351;50.812;12.872;2023-07-20T10:07:10;97628.09;;;18.17;86.66
5062;BME280;2351;50.812;12.872;2023-07-20T10:09:44;97628.09;;;18.17;87.01
5062;BME280;2351;50.812;12.872;2023-07-20T10:12:20;97630.06;;;18.09;87.04
5062;BME280;2351;50.812;12.872;2023-07-20T10:14:58;97626.75;;;18.06;86.79
5062;BME280;2351;50.812;12.872;2023-07-20T10:17:31;97625.72;;;17.92;86.11
5062;BME280;2351;50.812;12.872;2023-07-20T10:20:04;97631.91;;;17.93;86.55
5062;BME280;2351;50.812;12.872;2023-07-20T10:22:38;97628.97;;;17.88;85.98
5062;BME280;2351;50.812;12.872;2023-07-20T10:25:10;97625.19;;;17.97;86.59
5062;BME280;2351;50.812;12.872;2023-07-20T10:27:43;97618.84;;;17.98;86.06
5062;BME280;2351;50.812;12.872;2023-07-20T10:30:17;97612.81;;;17.96;85.33
5062;BME280;2351;50.812;12.872;2023-07-20T10:32:50;97617.97;;;17.98;85.72
5062;BME280;2351;50.812;12.872;2023-07-20T10:35:22;97626.56;;;18.08;86.22
5062;BME280;2351;50.812;12.872;2023-07-20T10:37:55;97623.50;;;18.11;86.06
5062;BME280;2351;50.812;12.872;2023-07-20T10:40:32;97615.13;;;17.99;85.86
5062;BME280;2351;50.812;12.872;2023-07-20T10:43:07;97622.13;;;18.00;86.10
5062;BME280;2351;50.812;12.872;2023-07-20T10:45:48;97624.44;;;18.03;86.68
5062;BME280;2351;50.812;12.872;2023-07-20T10:48:22;97627.84;;;17.97;86.41
5062;BME280;2351;50.812;12.872;2023-07-20T10:51:10;97626.19;;;17.96;86.89
5062;BME280;2351;50.812;12.872;2023-07-20T10:53:42;97629.41;;;17.91;86.38
5062;BME280;2351;50.812;12.872;2023-07-20T10:56:15;97632.47;;;18.03;86.97
5062;BME280;2351;50.812;12.872;2023-07-20T10:58:55;97625.63;;;18.16;87.23
5062;BME280;2351;50.812;12.872;2023-07-20T11:01:28;97628.66;;;18.28;86.95
5062;BME280;2351;50.812;12.872;2023-07-20T11:04:08;97625.75;;;18.29;85.52
5062;BME280;2351;50.812;12.872;2023-07-20T11:06:42;97610.78;;;18.35;86.37
5062;BME280;2351;50.812;12.872;2023-07-20T11:09:14;97613.47;;;18.57;87.31
5062;BME280;2351;50.812;12.872;2023-07-20T11:11:47;97608.94;;;18.79;85.93
5062;BME280;2351;50.812;12.872;2023-07-20T11:14:24;97597.38;;;18.78;82.92
5062;BME280;2351;50.812;12.872;2023-07-20T11:17:11;97586.94;;;18.90;83.10
5062;BME280;2351;50.812;12.872;2023-07-20T11:19:42;97591.81;;;19.02;82.09
5062;BME280;2351;50.812;12.872;2023-07-20T11:22:16;97585.53;;;19.16;81.93
5062;BME280;2351;50.812;12.872;2023-07-20T11:24:48;97585.41;;;19.31;81.62
5062;BME280;2351;50.812;12.872;2023-07-20T11:27:21;97581.34;;;19.42;81.04
5062;BME280;2351;50.812;12.872;2023-07-20T11:29:54;97590.16;;;19.29;74.51
5062;BME280;2351;50.812;12.872;2023-07-20T11:32:26;97590.28;;;19.21;76.89
5062;BME280;2351;50.812;12.872;2023-07-20T11:34:59;97591.13;;;19.21;76.01
5062;BME280;2351;50.812;12.872;2023-07-20T11:37:30;97587.72;;;19.34;76.80
5062;BME280;2351;50.812;12.872;2023-07-20T11:40:04;97592.91;;;19.42;76.23
5062;BME280;2351;50.812;12.872;2023-07-20T11:42:36;97599.03;;;19.30;72.89
5062;BME280;2351;50.812;12.872;2023-07-20T11:45:09;97602.31;;;19.32;73.23
5062;BME280;2351;50.812;12.872;2023-07-20T11:47:41;97604.31;;;19.51;72.52
5062;BME280;2351;50.812;12.872;2023-07-20T11:50:13;97600.09;;;19.77;71.69
5062;BME280;2351;50.812;12.872;2023-07-20T11:52:46;97602.84;;;19.84;70.78
5062;BME280;2351;50.812;12.872;2023-07-20T11:55:18;97605.91;;;19.46;74.22
5062;BME280;2351;50.812;12.872;2023-07-20T11:58:03;97616.75;;;19.59;72.42
5062;BME280;2351;50.812;12.872;2023-07-20T12:00:37;97642.63;;;18.66;74.00
5062;BME280;2351;50.812;12.872;2023-07-20T12:03:10;97646.16;;;17.49;81.40
5062;BME280;2351;50.812;12.872;2023-07-20T12:05:42;97660.28;;;16.58;87.40
5062;BME280;2351;50.812;12.872;2023-07-20T12:08:15;97652.59;;;16.31;90.11
5062;BME280;2351;50.812;12.872;2023-07-20T12:10:48;97670.16;;;15.86;94.02
5062;BME280;2351;50.812;12.872;2023-07-20T12:13:20;97690.88;;;15.59;99.22
5062;BME280;2351;50.812;12.872;2023-07-20T12:15:54;97694.59;;;15.33;100.00
5062;BME280;2351;50.812;12.872;2023-07-20T12:22:10;97704.09;;;14.94;100.00
5062;BME280;2351;50.812;12.872;2023-07-20T12:25:16;97702.41;;;14.68;100.00
5062;BME280;2351;50.812;12.872;2023-07-20T12:28:06;97708.59;;;14.69;100.00
5062;BME280;2351;50.812;12.872;2023-07-20T12:30:38;97699.78;;;14.76;100.00
5062;BME280;2351;50.812;12.872;2023-07-20T12:33:12;97708.41;;;14.70;100.00
5062;BME280;2351;50.812;12.872;2023-07-20T12:35:45;97700.63;;;14.77;100.00
5062;BME280;2351;50.812;12.872;2023-07-20T12:38:17;97700.59;;;14.85;100.00
5062;BME280;2351;50.812;12.872;2023-07-20T12:40:49;97696.97;;;14.95;100.00
5062;BME280;2351;50.812;12.872;2023-07-20T12:43:21;97692.59;;;15.02;100.00
5062;BME280;2351;50.812;12.872;2023-07-20T12:45:53;97692.28;;;15.05;100.00
5062;BME280;2351;50.812;12.872;2023-07-20T12:48:26;97688.97;;;15.19;100.00
5062;BME280;2351;50.812;12.872;2023-07-20T12:50:58;97692.78;;;15.25;100.00
5062;BME280;2351;50.812;12.872;2023-07-20T12:53:30;97695.25;;;15.35;100.00
5062;BME280;2351;50.812;12.872;2023-07-20T12:56:02;97698.56;;;15.45;100.00
5062;BME280;2351;50.812;12.872;2023-07-20T12:58:34;97697.56;;;15.46;100.00
5062;BME280;2351;50.812;12.872;2023-07-20T13:01:07;97702.41;;;15.51;100.00
5062;BME280;2351;50.812;12.872;2023-07-20T13:03:40;97703.03;;;15.61;100.00
5062;BME280;2351;50.812;12.872;2023-07-20T13:06:12;97700.16;;;15.79;100.00
5062;BME280;2351;50.812;12.872;2023-07-20T13:08:44;97691.47;;;15.94;100.00
5062;BME280;2351;50.812;12.872;2023-07-20T13:11:16;97688.91;;;16.09;100.00
5062;BME280;2351;50.812;12.872;2023-07-20T13:13:47;97687.34;;;16.23;100.00
5062;BME280;2351;50.812;12.872;2023-07-20T13:16:19;97695.53;;;16.21;100.00
5062;BME280;2351;50.812;12.872;2023-07-20T13:18:52;97694.03;;;16.19;100.00
5062;BME280;2351;50.812;12.872;2023-07-20T13:21:24;97695.91;;;16.41;100.00
5062;BME280;2351;50.812;12.872;2023-07-20T13:23:59;97694.03;;;16.50;100.00
5062;BME280;2351;50.812;12.872;2023-07-20T13:26:31;97696.78;;;16.89;100.00
5062;BME280;2351;50.812;12.872;2023-07-20T13:29:03;97686.16;;;17.27;100.00
5062;BME280;2351;50.812;12.872;2023-07-20T13:31:35;97688.34;;;17.23;100.00
5062;BME280;2351;50.812;12.872;2023-07-20T13:34:08;97692.38;;;17.04;99.82
5062;BME280;2351;50.812;12.872;2023-07-20T13:36:39;97696.94;;;16.95;98.85
5062;BME280;2351;50.812;12.872;2023-07-20T13:39:11;97696.41;;;17.00;98.37